sensor_id;sensor_type;location;lat;lon;timestamp;P1;durP1;ratioP1;P2;durP2;ratioP2
70545;SDS011;58098;51.680;5.134;2023-07-13T00:02:07;6.73;;;2.67;;
70545;SDS011;58098;51.680;5.134;2023-07-13T00:04:34;8.88;;;2.45;;
70545;SDS011;58098;51.680;5.134;2023-07-13T00:06:59;9.70;;;2.03;;
70545;SDS011;58098;51.680;5.134;2023-07-13T00:09:25;8.30;;;2.03;;
70545;SDS011;58098;51.680;5.134;2023-07-13T00:11:54;10.40;;;2.40;;
70545;SDS011;58098;51.680;5.134;2023-07-13T00:14:21;6.88;;;1.95;;
70545;SDS011;58098;51.680;5.134;2023-07-13T00:16:47;12.63;;;2.40;;
70545;SDS011;58098;51.680;5.134;2023-07-13T00:19:13;10.68;;;2.30;;
70545;SDS011;58098;51.680;5.134;2023-07-13T00:21:40;9.20;;;2.65;;
70545;SDS011;58098;51.680;5.134;2023-07-13T00:24:07;5.90;;;2.13;;
70545;SDS011;58098;51.680;5.134;2023-07-13T00:26:37;11.60;;;2.67;;
70545;SDS011;58098;51.680;5.134;2023-07-13T00:29:03;11.47;;;3.07;;
70545;SDS011;58098;51.680;5.134;2023-07-13T00:31:33;14.23;;;2.30;;
70545;SDS011;58098;51.680;5.134;2023-07-13T00:33:59;11.02;;;2.70;;
70545;SDS011;58098;51.680;5.134;2023-07-13T00:36:25;9.67;;;2.50;;
70545;SDS011;58098;51.680;5.134;2023-07-13T00:38:51;11.63;;;2.90;;
70545;SDS011;58098;51.680;5.134;2023-07-13T00:41:16;13.88;;;3.10;;
70545;SDS011;58098;51.680;5.134;2023-07-13T00:43:42;9.90;;;2.60;;
70545;SDS011;58098;51.680;5.134;2023-07-13T00:46:12;7.53;;;2.70;;
70545;SDS011;58098;51.680;5.134;2023-07-13T00:48:38;12.25;;;2.90;;
70545;SDS011;58098;51.680;5.134;2023-07-13T00:51:04;8.60;;;2.50;;
70545;SDS011;58098;51.680;5.134;2023-07-13T00:53:29;7.22;;;2.65;;
70545;SDS011;58098;51.680;5.134;2023-07-13T00:55:57;9.10;;;2.60;;
70545;SDS011;58098;51.680;5.134;2023-07-13T00:58:24;7.65;;;3.35;;
70545;SDS011;58098;51.680;5.134;2023-07-13T01:00:51;7.68;;;2.50;;
70545;SDS011;58098;51.680;5.134;2023-07-13T01:03:17;10.10;;;2.77;;
70545;SDS011;58098;51.680;5.134;2023-07-13T01:05:43;11.75;;;2.90;;
70545;SDS011;58098;51.680;5.134;2023-07-13T01:08:13;9.00;;;2.83;;
70545;SDS011;58098;51.680;5.134;2023-07-13T01:10:39;10.55;;;2.83;;
70545;SDS011;58098;51.680;5.134;2023-07-13T01:13:08;8.67;;;3.03;;
70545;SDS011;58098;51.680;5.134;2023-07-13T01:18:06;11.07;;;2.63;;
70545;SDS011;58098;51.680;5.134;2023-07-13T01:20:51;5.57;;;2.67;;
70545;SDS011;58098;51.680;5.134;2023-07-13T01:23:18;11.95;;;2.80;;
70545;SDS011;58098;51.680;5.134;2023-07-13T01:25:44;12.30;;;2.97;;
70545;SDS011;58098;51.680;5.134;2023-07-13T01:28:09;10.50;;;3.23;;
70545;SDS011;58098;51.680;5.134;2023-07-13T01:30:35;12.75;;;3.30;;
70545;SDS011;58098;51.680;5.134;2023-07-13T01:33:03;13.48;;;3.30;;
70545;SDS011;58098;51.680;5.134;2023-07-13T01:35:29;14.17;;;3.17;;
70545;SDS011;58098;51.680;5.134;2023-07-13T01:37:54;10.93;;;3.50;;
70545;SDS011;58098;51.680;5.134;2023-07-13T01:40:20;10.70;;;3.30;;
70545;SDS011;58098;51.680;5.134;2023-07-13T01:42:46;14.33;;;3.47;;
70545;SDS011;58098;51.680;5.134;2023-07-13T01:45:11;9.07;;;3.22;;
70545;SDS011;58098;51.680;5.134;2023-07-13T01:47:37;10.80;;;3.13;;
70545;SDS011;58098;51.680;5.134;2023-07-13T01:50:02;13.47;;;2.80;;
70545;SDS011;58098;51.680;5.134;2023-07-13T01:52:28;13.40;;;3.35;;
70545;SDS011;58098;51.680;5.134;2023-07-13T01:54:54;11.83;;;3.40;;
70545;SDS011;58098;51.680;5.134;2023-07-13T01:57:20;11.85;;;3.75;;
70545;SDS011;58098;51.680;5.134;2023-07-13T01:59:45;18.57;;;3.90;;
70545;SDS011;58098;51.680;5.134;2023-07-13T02:02:10;13.37;;;3.57;;
70545;SDS011;58098;51.680;5.134;2023-07-13T02:04:36;10.83;;;3.37;;
70545;SDS011;58098;51.680;5.134;2023-07-13T02:07:01;14.02;;;3.38;;
70545;SDS011;58098;51.680;5.134;2023-07-13T02:09:27;19.53;;;3.80;;
70545;SDS011;58098;51.680;5.134;2023-07-13T02:11:52;14.57;;;3.60;;
70545;SDS011;58098;51.680;5.134;2023-07-13T02:14:18;13.47;;;3.50;;
70545;SDS011;58098;51.680;5.134;2023-07-13T02:16:43;12.97;;;3.93;;
70545;SDS011;58098;51.680;5.134;2023-07-13T02:19:08;12.53;;;4.40;;
70545;SDS011;58098;51.680;5.134;2023-07-13T02:21:34;12.93;;;4.13;;
70545;SDS011;58098;51.680;5.134;2023-07-13T02:23:59;10.43;;;3.67;;
70545;SDS011;58098;51.680;5.134;2023-07-13T02:26:25;11.90;;;3.78;;
70545;SDS011;58098;51.680;5.134;2023-07-13T02:28:51;16.10;;;3.90;;
70545;SDS011;58098;51.680;5.134;2023-07-13T02:31:17;15.57;;;4.40;;
70545;SDS011;58098;51.680;5.134;2023-07-13T02:33:43;15.90;;;4.10;;
70545;SDS011;58098;51.680;5.134;2023-07-13T02:36:08;15.60;;;4.33;;
70545;SDS011;58098;51.680;5.134;2023-07-13T02:38:35;14.65;;;3.83;;
70545;SDS011;58098;51.680;5.134;2023-07-13T02:41:02;26.92;;;4.95;;
70545;SDS011;58098;51.680;5.134;2023-07-13T02:43:32;17.70;;;4.45;;
70545;SDS011;58098;51.680;5.134;2023-07-13T02:45:58;14.70;;;4.27;;
70545;SDS011;58098;51.680;5.134;2023-07-13T02:48:29;17.38;;;4.22;;
70545;SDS011;58098;51.680;5.134;2023-07-13T02:50:54;21.00;;;4.50;;
70545;SDS011;58098;51.680;5.134;2023-07-13T02:53:20;15.20;;;4.03;;
70545;SDS011;58098;51.680;5.134;2023-07-13T02:55:45;18.00;;;4.43;;
70545;SDS011;58098;51.680;5.134;2023-07-13T02:58:12;14.98;;;4.72;;
70545;SDS011;58098;51.680;5.134;2023-07-13T03:00:41;16.98;;;4.57;;
70545;SDS011;58098;51.680;5.134;2023-07-13T03:03:08;18.23;;;4.80;;
70545;SDS011;58098;51.680;5.134;2023-07-13T03:05:33;14.77;;;4.50;;
70545;SDS011;58098;51.680;5.134;2023-07-13T03:07:59;14.90;;;4.90;;
70545;SDS011;58098;51.680;5.134;2023-07-13T03:10:24;15.25;;;4.72;;
70545;SDS011;58098;51.680;5.134;2023-07-13T03:12:50;18.53;;;5.13;;
70545;SDS011;58098;51.680;5.134;2023-07-13T03:15:16;19.48;;;5.47;;
70545;SDS011;58098;51.680;5.134;2023-07-13T03:17:41;21.93;;;5.30;;
70545;SDS011;58098;51.680;5.134;2023-07-13T03:20:07;13.77;;;5.33;;
70545;SDS011;58098;51.680;5.134;2023-07-13T03:22:32;16.63;;;4.97;;
70545;SDS011;58098;51.680;5.134;2023-07-13T03:24:58;21.27;;;5.43;;
70545;SDS011;58098;51.680;5.134;2023-07-13T03:27:23;12.30;;;4.37;;
70545;SDS011;58098;51.680;5.134;2023-07-13T03:29:49;17.07;;;5.50;;
70545;SDS011;58098;51.680;5.134;2023-07-13T03:32:14;18.65;;;5.40;;
70545;SDS011;58098;51.680;5.134;2023-07-13T03:34:39;14.63;;;5.67;;
70545;SDS011;58098;51.680;5.134;2023-07-13T03:37:05;18.60;;;6.33;;
70545;SDS011;58098;51.680;5.134;2023-07-13T03:39:30;17.30;;;5.53;;
70545;SDS011;58098;51.680;5.134;2023-07-13T03:41:56;18.77;;;5.80;;
70545;SDS011;58098;51.680;5.134;2023-07-13T03:44:21;22.93;;;6.27;;
70545;SDS011;58098;51.680;5.134;2023-07-13T03:46:47;16.17;;;5.50;;
70545;SDS011;58098;51.680;5.134;2023-07-13T03:49:12;16.00;;;5.57;;
70545;SDS011;58098;51.680;5.134;2023-07-13T03:51:37;21.80;;;6.28;;
70545;SDS011;58098;51.680;5.134;2023-07-13T03:54:03;21.97;;;6.43;;
70545;SDS011;58098;51.680;5.134;2023-07-13T03:56:29;17.58;;;6.57;;
70545;SDS011;58098;51.680;5.134;2023-07-13T03:58:55;21.45;;;6.88;;
70545;SDS011;58098;51.680;5.134;2023-07-13T04:01:22;20.75;;;6.45;;
70545;SDS011;58098;51.680;5.134;2023-07-13T04:03:49;20.43;;;6.33;;
70545;SDS011;58098;51.680;5.134;2023-07-13T04:06:23;21.92;;;6.28;;
70545;SDS011;58098;51.680;5.134;2023-07-13T04:08:52;14.57;;;6.13;;
70545;SDS011;58098;51.680;5.134;2023-07-13T04:11:20;15.75;;;6.45;;
70545;SDS011;58098;51.680;5.134;2023-07-13T04:13:48;25.67;;;7.30;;
70545;SDS011;58098;51.680;5.134;2023-07-13T04:16:14;14.53;;;7.10;;
70545;SDS011;58098;51.680;5.134;2023-07-13T04:18:40;20.85;;;7.05;;
70545;SDS011;58098;51.680;5.134;2023-07-13T04:21:06;24.83;;;6.82;;
70545;SDS011;58098;51.680;5.134;2023-07-13T04:23:32;29.13;;;7.60;;
70545;SDS011;58098;51.680;5.134;2023-07-13T04:25:57;28.10;;;7.72;;
70545;SDS011;58098;51.680;5.134;2023-07-13T04:28:23;24.03;;;7.00;;
70545;SDS011;58098;51.680;5.134;2023-07-13T04:30:50;21.80;;;7.60;;
70545;SDS011;58098;51.680;5.134;2023-07-13T04:33:15;22.90;;;7.53;;
70545;SDS011;58098;51.680;5.134;2023-07-13T04:35:47;20.38;;;7.00;;
70545;SDS011;58098;51.680;5.134;2023-07-13T04:38:13;21.40;;;6.78;;
70545;SDS011;58098;51.680;5.134;2023-07-13T04:40:40;27.20;;;8.02;;
70545;SDS011;58098;51.680;5.134;2023-07-13T04:43:09;22.77;;;7.17;;
70545;SDS011;58098;51.680;5.134;2023-07-13T04:45:35;19.47;;;6.93;;
70545;SDS011;58098;51.680;5.134;2023-07-13T04:48:00;22.80;;;6.83;;
70545;SDS011;58098;51.680;5.134;2023-07-13T04:50:25;22.80;;;7.47;;
70545;SDS011;58098;51.680;5.134;2023-07-13T04:52:51;24.30;;;7.97;;
70545;SDS011;58098;51.680;5.134;2023-07-13T04:55:17;22.52;;;8.50;;
70545;SDS011;58098;51.680;5.134;2023-07-13T04:57:43;22.37;;;7.97;;
70545;SDS011;58098;51.680;5.134;2023-07-13T05:00:08;23.75;;;8.52;;
70545;SDS011;58098;51.680;5.134;2023-07-13T05:02:35;27.90;;;8.52;;
70545;SDS011;58098;51.680;5.134;2023-07-13T05:05:02;23.93;;;7.87;;
70545;SDS011;58098;51.680;5.134;2023-07-13T05:07:28;22.95;;;7.90;;
70545;SDS011;58098;51.680;5.134;2023-07-13T05:09:54;24.25;;;8.70;;
70545;SDS011;58098;51.680;5.134;2023-07-13T05:12:20;25.60;;;8.23;;
70545;SDS011;58098;51.680;5.134;2023-07-13T05:14:46;26.38;;;8.30;;
70545;SDS011;58098;51.680;5.134;2023-07-13T05:17:11;22.23;;;8.60;;
70545;SDS011;58098;51.680;5.134;2023-07-13T05:19:36;20.37;;;8.53;;
70545;SDS011;58098;51.680;5.134;2023-07-13T05:22:02;24.05;;;8.75;;
70545;SDS011;58098;51.680;5.134;2023-07-13T05:24:28;20.40;;;7.43;;
70545;SDS011;58098;51.680;5.134;2023-07-13T05:26:54;24.02;;;8.02;;
70545;SDS011;58098;51.680;5.134;2023-07-13T05:29:20;26.57;;;8.33;;
70545;SDS011;58098;51.680;5.134;2023-07-13T05:31:46;35.47;;;8.87;;
70545;SDS011;58098;51.680;5.134;2023-07-13T05:34:12;28.35;;;9.32;;
70545;SDS011;58098;51.680;5.134;2023-07-13T05:36:37;21.27;;;8.80;;
70545;SDS011;58098;51.680;5.134;2023-07-13T05:39:03;24.50;;;8.17;;
70545;SDS011;58098;51.680;5.134;2023-07-13T05:41:29;19.10;;;9.10;;
70545;SDS011;58098;51.680;5.134;2023-07-13T05:43:55;23.88;;;8.75;;
70545;SDS011;58098;51.680;5.134;2023-07-13T05:46:20;25.53;;;8.93;;
70545;SDS011;58098;51.680;5.134;2023-07-13T05:48:46;18.90;;;7.93;;
70545;SDS011;58098;51.680;5.134;2023-07-13T05:51:11;22.75;;;8.48;;
70545;SDS011;58098;51.680;5.134;2023-07-13T05:53:36;25.47;;;8.93;;
70545;SDS011;58098;51.680;5.134;2023-07-13T05:56:02;28.00;;;8.80;;
70545;SDS011;58098;51.680;5.134;2023-07-13T05:58:27;23.27;;;8.53;;
70545;SDS011;58098;51.680;5.134;2023-07-13T06:01:00;26.90;;;9.63;;
70545;SDS011;58098;51.680;5.134;2023-07-13T06:03:27;23.80;;;9.30;;
70545;SDS011;58098;51.680;5.134;2023-07-13T06:05:52;27.73;;;9.10;;
70545;SDS011;58098;51.680;5.134;2023-07-13T06:08:17;23.90;;;9.70;;
70545;SDS011;58098;51.680;5.134;2023-07-13T06:10:43;29.57;;;10.37;;
70545;SDS011;58098;51.680;5.134;2023-07-13T06:13:08;32.93;;;9.17;;
70545;SDS011;58098;51.680;5.134;2023-07-13T06:15:34;27.70;;;9.87;;
70545;SDS011;58098;51.680;5.134;2023-07-13T06:17:59;28.70;;;11.23;;
70545;SDS011;58098;51.680;5.134;2023-07-13T06:20:24;23.65;;;10.25;;
70545;SDS011;58098;51.680;5.134;2023-07-13T06:22:50;29.63;;;11.57;;
70545;SDS011;58098;51.680;5.134;2023-07-13T06:25:15;29.77;;;12.90;;
70545;SDS011;58098;51.680;5.134;2023-07-13T06:27:41;27.40;;;11.40;;
70545;SDS011;58098;51.680;5.134;2023-07-13T06:30:06;30.17;;;12.30;;
70545;SDS011;58098;51.680;5.134;2023-07-13T06:32:32;30.23;;;13.43;;
70545;SDS011;58098;51.680;5.134;2023-07-13T06:34:57;32.60;;;13.90;;
70545;SDS011;58098;51.680;5.134;2023-07-13T06:37:23;31.65;;;13.20;;
70545;SDS011;58098;51.680;5.134;2023-07-13T06:39:48;35.87;;;14.27;;
70545;SDS011;58098;51.680;5.134;2023-07-13T06:42:13;29.17;;;13.33;;
70545;SDS011;58098;51.680;5.134;2023-07-13T06:44:39;37.23;;;14.30;;
70545;SDS011;58098;51.680;5.134;2023-07-13T06:47:04;35.67;;;13.87;;
70545;SDS011;58098;51.680;5.134;2023-07-13T06:49:30;27.05;;;13.32;;
70545;SDS011;58098;51.680;5.134;2023-07-13T06:51:56;37.88;;;15.00;;
70545;SDS011;58098;51.680;5.134;2023-07-13T06:54:21;31.37;;;14.30;;
70545;SDS011;58098;51.680;5.134;2023-07-13T06:56:46;35.23;;;14.23;;
70545;SDS011;58098;51.680;5.134;2023-07-13T06:59:12;30.53;;;13.50;;
70545;SDS011;58098;51.680;5.134;2023-07-13T07:01:37;29.93;;;13.73;;
70545;SDS011;58098;51.680;5.134;2023-07-13T07:04:03;29.70;;;13.40;;
70545;SDS011;58098;51.680;5.134;2023-07-13T07:06:28;28.35;;;13.20;;
70545;SDS011;58098;51.680;5.134;2023-07-13T07:08:54;25.38;;;12.93;;
70545;SDS011;58098;51.680;5.134;2023-07-13T07:11:21;23.83;;;13.40;;
70545;SDS011;58098;51.680;5.134;2023-07-13T07:13:49;31.55;;;13.60;;
70545;SDS011;58098;51.680;5.134;2023-07-13T07:16:15;24.92;;;12.15;;
70545;SDS011;58098;51.680;5.134;2023-07-13T07:18:41;27.40;;;12.40;;
70545;SDS011;58098;51.680;5.134;2023-07-13T07:21:06;29.97;;;13.07;;
70545;SDS011;58098;51.680;5.134;2023-07-13T07:23:32;26.07;;;13.13;;
70545;SDS011;58098;51.680;5.134;2023-07-13T07:25:58;25.67;;;12.60;;
70545;SDS011;58098;51.680;5.134;2023-07-13T07:28:23;25.50;;;11.57;;
70545;SDS011;58098;51.680;5.134;2023-07-13T07:30:49;22.43;;;12.20;;
70545;SDS011;58098;51.680;5.134;2023-07-13T07:33:17;27.65;;;12.80;;
70545;SDS011;58098;51.680;5.134;2023-07-13T07:35:43;18.80;;;11.30;;
70545;SDS011;58098;51.680;5.134;2023-07-13T07:38:08;23.37;;;11.47;;
70545;SDS011;58098;51.680;5.134;2023-07-13T07:40:36;18.50;;;9.70;;
70545;SDS011;58098;51.680;5.134;2023-07-13T07:43:06;19.45;;;10.45;;
70545;SDS011;58098;51.680;5.134;2023-07-13T07:45:32;20.50;;;8.80;;
70545;SDS011;58098;51.680;5.134;2023-07-13T07:47:57;16.20;;;8.80;;
70545;SDS011;58098;51.680;5.134;2023-07-13T07:50:24;19.67;;;9.35;;
70545;SDS011;58098;51.680;5.134;2023-07-13T07:52:53;20.33;;;7.53;;
70545;SDS011;58098;51.680;5.134;2023-07-13T07:55:20;19.23;;;8.20;;
70545;SDS011;58098;51.680;5.134;2023-07-13T07:57:47;19.83;;;8.00;;
70545;SDS011;58098;51.680;5.134;2023-07-13T08:00:12;17.70;;;7.83;;
70545;SDS011;58098;51.680;5.134;2023-07-13T08:02:38;17.95;;;7.57;;
70545;SDS011;58098;51.680;5.134;2023-07-13T08:05:03;16.93;;;6.40;;
70545;SDS011;58098;51.680;5.134;2023-07-13T08:07:32;25.45;;;6.90;;
70545;SDS011;58098;51.680;5.134;2023-07-13T08:09:57;17.60;;;6.17;;
70545;SDS011;58098;51.680;5.134;2023-07-13T08:12:23;18.23;;;6.03;;
70545;SDS011;58098;51.680;5.134;2023-07-13T08:14:51;15.73;;;6.00;;
70545;SDS011;58098;51.680;5.134;2023-07-13T08:17:19;14.63;;;6.32;;
70545;SDS011;58098;51.680;5.134;2023-07-13T08:19:45;14.63;;;5.80;;
70545;SDS011;58098;51.680;5.134;2023-07-13T08:22:10;15.30;;;5.82;;
70545;SDS011;58098;51.680;5.134;2023-07-13T08:24:36;12.77;;;6.10;;
70545;SDS011;58098;51.680;5.134;2023-07-13T08:27:01;14.80;;;5.20;;
70545;SDS011;58098;51.680;5.134;2023-07-13T08:29:26;14.63;;;5.32;;
70545;SDS011;58098;51.680;5.134;2023-07-13T08:31:52;12.80;;;4.43;;
70545;SDS011;58098;51.680;5.134;2023-07-13T08:34:17;13.07;;;4.53;;
70545;SDS011;58098;51.680;5.134;2023-07-13T08:36:42;14.13;;;4.33;;
70545;SDS011;58098;51.680;5.134;2023-07-13T08:39:08;11.90;;;4.03;;
70545;SDS011;58098;51.680;5.134;2023-07-13T08:41:34;12.13;;;4.03;;
70545;SDS011;58098;51.680;5.134;2023-07-13T08:44:00;11.73;;;3.80;;
70545;SDS011;58098;51.680;5.134;2023-07-13T08:46:34;14.02;;;3.80;;
70545;SDS011;58098;51.680;5.134;2023-07-13T08:49:18;11.57;;;3.90;;
70545;SDS011;58098;51.680;5.134;2023-07-13T08:51:49;10.20;;;3.75;;
70545;SDS011;58098;51.680;5.134;2023-07-13T08:54:37;12.85;;;3.97;;
70545;SDS011;58098;51.680;5.134;2023-07-13T08:57:16;11.52;;;3.78;;
70545;SDS011;58098;51.680;5.134;2023-07-13T08:59:44;12.43;;;4.28;;
70545;SDS011;58098;51.680;5.134;2023-07-13T09:05:18;14.13;;;4.40;;
70545;SDS011;58098;51.680;5.134;2023-07-13T09:10:35;10.07;;;3.60;;
70545;SDS011;58098;51.680;5.134;2023-07-13T09:16:23;10.10;;;3.60;;
70545;SDS011;58098;51.680;5.134;2023-07-13T09:18:50;13.55;;;4.03;;
70545;SDS011;58098;51.680;5.134;2023-07-13T09:21:21;10.40;;;3.65;;
70545;SDS011;58098;51.680;5.134;2023-07-13T09:23:52;11.17;;;3.70;;
70545;SDS011;58098;51.680;5.134;2023-07-13T09:26:21;12.82;;;4.40;;
70545;SDS011;58098;51.680;5.134;2023-07-13T09:28:49;9.98;;;3.85;;
70545;SDS011;58098;51.680;5.134;2023-07-13T09:31:37;12.88;;;3.88;;
70545;SDS011;58098;51.680;5.134;2023-07-13T09:34:10;12.85;;;4.28;;
70545;SDS011;58098;51.680;5.134;2023-07-13T09:36:37;10.97;;;3.70;;
70545;SDS011;58098;51.680;5.134;2023-07-13T09:41:54;9.82;;;4.00;;
70545;SDS011;58098;51.680;5.134;2023-07-13T09:44:27;11.02;;;3.72;;
70545;SDS011;58098;51.680;5.134;2023-07-13T09:46:56;10.25;;;3.28;;
70545;SDS011;58098;51.680;5.134;2023-07-13T09:49:26;11.67;;;3.40;;
70545;SDS011;58098;51.680;5.134;2023-07-13T09:51:59;7.43;;;2.70;;
70545;SDS011;58098;51.680;5.134;2023-07-13T09:54:32;8.65;;;2.83;;
70545;SDS011;58098;51.680;5.134;2023-07-13T09:56:59;7.13;;;3.17;;
70545;SDS011;58098;51.680;5.134;2023-07-13T09:59:32;6.97;;;3.00;;
70545;SDS011;58098;51.680;5.134;2023-07-13T10:01:59;7.80;;;3.20;;
70545;SDS011;58098;51.680;5.134;2023-07-13T10:04:30;11.43;;;3.05;;
70545;SDS011;58098;51.680;5.134;2023-07-13T10:07:07;7.80;;;3.45;;
70545;SDS011;58098;51.680;5.134;2023-07-13T10:09:33;10.70;;;3.30;;
70545;SDS011;58098;51.680;5.134;2023-07-13T10:11:59;9.32;;;3.10;;
70545;SDS011;58098;51.680;5.134;2023-07-13T10:14:24;7.07;;;2.70;;
70545;SDS011;58098;51.680;5.134;2023-07-13T10:17:00;7.43;;;3.13;;
70545;SDS011;58098;51.680;5.134;2023-07-13T10:19:29;6.07;;;3.00;;
70545;SDS011;58098;51.680;5.134;2023-07-13T10:22:13;9.23;;;3.38;;
70545;SDS011;58098;51.680;5.134;2023-07-13T10:24:45;8.80;;;2.67;;
70545;SDS011;58098;51.680;5.134;2023-07-13T10:27:18;8.50;;;3.22;;
70545;SDS011;58098;51.680;5.134;2023-07-13T10:29:52;11.15;;;3.25;;
70545;SDS011;58098;51.680;5.134;2023-07-13T10:32:24;10.57;;;3.50;;
70545;SDS011;58098;51.680;5.134;2023-07-13T10:34:50;11.80;;;3.60;;
70545;SDS011;58098;51.680;5.134;2023-07-13T10:40:21;11.90;;;3.58;;
70545;SDS011;58098;51.680;5.134;2023-07-13T10:42:53;7.53;;;3.30;;
70545;SDS011;58098;51.680;5.134;2023-07-13T10:45:22;8.80;;;2.87;;
70545;SDS011;58098;51.680;5.134;2023-07-13T10:47:49;9.13;;;3.25;;
70545;SDS011;58098;51.680;5.134;2023-07-13T10:50:22;6.32;;;2.75;;
70545;SDS011;58098;51.680;5.134;2023-07-13T10:52:53;7.30;;;3.30;;
70545;SDS011;58098;51.680;5.134;2023-07-13T11:00:49;9.93;;;3.70;;
70545;SDS011;58098;51.680;5.134;2023-07-13T11:03:18;7.65;;;3.50;;
70545;SDS011;58098;51.680;5.134;2023-07-13T11:05:51;7.78;;;2.92;;
70545;SDS011;58098;51.680;5.134;2023-07-13T11:10:58;11.53;;;3.23;;
70545;SDS011;58098;51.680;5.134;2023-07-13T11:13:37;7.10;;;2.85;;
70545;SDS011;58098;51.680;5.134;2023-07-13T11:18:49;7.57;;;3.10;;
70545;SDS011;58098;51.680;5.134;2023-07-13T11:21:16;8.25;;;2.72;;
70545;SDS011;58098;51.680;5.134;2023-07-13T11:23:52;9.77;;;3.10;;
70545;SDS011;58098;51.680;5.134;2023-07-13T11:26:38;7.68;;;3.10;;
70545;SDS011;58098;51.680;5.134;2023-07-13T11:31:51;5.45;;;2.50;;
70545;SDS011;58098;51.680;5.134;2023-07-13T11:34:40;7.18;;;2.50;;
70545;SDS011;58098;51.680;5.134;2023-07-13T11:37:08;6.63;;;2.80;;
70545;SDS011;58098;51.680;5.134;2023-07-13T11:39:37;5.88;;;2.53;;
70545;SDS011;58098;51.680;5.134;2023-07-13T11:42:15;5.37;;;2.60;;
70545;SDS011;58098;51.680;5.134;2023-07-13T11:44:43;4.00;;;2.13;;
70545;SDS011;58098;51.680;5.134;2023-07-13T11:47:14;4.72;;;2.28;;
70545;SDS011;58098;51.680;5.134;2023-07-13T11:49:50;7.75;;;2.60;;
70545;SDS011;58098;51.680;5.134;2023-07-13T11:52:23;4.40;;;2.50;;
70545;SDS011;58098;51.680;5.134;2023-07-13T11:54:59;5.23;;;2.03;;
70545;SDS011;58098;51.680;5.134;2023-07-13T11:57:29;5.32;;;2.08;;
70545;SDS011;58098;51.680;5.134;2023-07-13T11:59:59;4.45;;;2.20;;
70545;SDS011;58098;51.680;5.134;2023-07-13T12:02:34;4.07;;;2.40;;
70545;SDS011;58098;51.680;5.134;2023-07-13T12:05:03;5.63;;;2.35;;
70545;SDS011;58098;51.680;5.134;2023-07-13T12:07:31;4.70;;;2.23;;
70545;SDS011;58098;51.680;5.134;2023-07-13T12:12:57;6.53;;;2.20;;
70545;SDS011;58098;51.680;5.134;2023-07-13T12:15:34;3.85;;;2.03;;
70545;SDS011;58098;51.680;5.134;2023-07-13T12:18:11;5.65;;;2.28;;
70545;SDS011;58098;51.680;5.134;2023-07-13T12:20:39;4.60;;;1.73;;
70545;SDS011;58098;51.680;5.134;2023-07-13T12:23:05;3.95;;;2.03;;
70545;SDS011;58098;51.680;5.134;2023-07-13T12:25:39;4.72;;;2.15;;
70545;SDS011;58098;51.680;5.134;2023-07-13T12:28:19;5.90;;;2.23;;
70545;SDS011;58098;51.680;5.134;2023-07-13T12:30:47;6.82;;;2.40;;
70545;SDS011;58098;51.680;5.134;2023-07-13T12:33:13;6.63;;;2.17;;
70545;SDS011;58098;51.680;5.134;2023-07-13T12:35:48;5.95;;;2.33;;
70545;SDS011;58098;51.680;5.134;2023-07-13T12:38:17;4.40;;;2.17;;
70545;SDS011;58098;51.680;5.134;2023-07-13T12:40:45;7.72;;;2.60;;
70545;SDS011;58098;51.680;5.134;2023-07-13T12:43:15;6.90;;;2.50;;
70545;SDS011;58098;51.680;5.134;2023-07-13T12:48:21;4.00;;;2.50;;
70545;SDS011;58098;51.680;5.134;2023-07-13T12:50:47;3.63;;;2.17;;
70545;SDS011;58098;51.680;5.134;2023-07-13T12:53:19;5.93;;;2.30;;
70545;SDS011;58098;51.680;5.134;2023-07-13T12:55:54;4.32;;;2.10;;
70545;SDS011;58098;51.680;5.134;2023-07-13T13:00:54;5.10;;;2.15;;
70545;SDS011;58098;51.680;5.134;2023-07-13T13:03:23;3.28;;;2.20;;
70545;SDS011;58098;51.680;5.134;2023-07-13T13:05:49;4.45;;;2.20;;
70545;SDS011;58098;51.680;5.134;2023-07-13T13:08:21;4.70;;;2.30;;
70545;SDS011;58098;51.680;5.134;2023-07-13T13:10:46;3.87;;;2.00;;
70545;SDS011;58098;51.680;5.134;2023-07-13T13:13:12;3.17;;;2.10;;
70545;SDS011;58098;51.680;5.134;2023-07-13T13:15:37;4.17;;;1.70;;
70545;SDS011;58098;51.680;5.134;2023-07-13T13:18:02;6.13;;;1.87;;
70545;SDS011;58098;51.680;5.134;2023-07-13T13:20:28;3.77;;;1.63;;
70545;SDS011;58098;51.680;5.134;2023-07-13T13:22:53;4.23;;;2.00;;
70545;SDS011;58098;51.680;5.134;2023-07-13T13:25:20;3.53;;;2.20;;
70545;SDS011;58098;51.680;5.134;2023-07-13T13:27:45;5.40;;;2.10;;
70545;SDS011;58098;51.680;5.134;2023-07-13T13:30:15;6.65;;;2.42;;
70545;SDS011;58098;51.680;5.134;2023-07-13T13:32:42;7.43;;;2.70;;
70545;SDS011;58098;51.680;5.134;2023-07-13T13:35:13;6.17;;;2.60;;
70545;SDS011;58098;51.680;5.134;2023-07-13T13:37:40;4.93;;;2.42;;
70545;SDS011;58098;51.680;5.134;2023-07-13T13:40:19;6.60;;;3.00;;
70545;SDS011;58098;51.680;5.134;2023-07-13T13:42:48;6.45;;;2.78;;
70545;SDS011;58098;51.680;5.134;2023-07-13T13:45:13;5.78;;;2.65;;
70545;SDS011;58098;51.680;5.134;2023-07-13T13:47:41;5.53;;;2.73;;
70545;SDS011;58098;51.680;5.134;2023-07-13T13:50:11;9.40;;;2.63;;
70545;SDS011;58098;51.680;5.134;2023-07-13T13:52:36;6.15;;;2.88;;
70545;SDS011;58098;51.680;5.134;2023-07-13T13:55:04;8.10;;;2.40;;
70545;SDS011;58098;51.680;5.134;2023-07-13T13:57:36;7.65;;;2.67;;
70545;SDS011;58098;51.680;5.134;2023-07-13T14:00:02;6.80;;;2.40;;
70545;SDS011;58098;51.680;5.134;2023-07-13T14:02:28;6.88;;;2.63;;
70545;SDS011;58098;51.680;5.134;2023-07-13T14:04:59;5.22;;;2.65;;
70545;SDS011;58098;51.680;5.134;2023-07-13T14:07:27;6.87;;;2.67;;
70545;SDS011;58098;51.680;5.134;2023-07-13T14:09:55;7.53;;;2.90;;
70545;SDS011;58098;51.680;5.134;2023-07-13T14:12:23;5.90;;;2.60;;
70545;SDS011;58098;51.680;5.134;2023-07-13T14:14:51;4.88;;;2.70;;
70545;SDS011;58098;51.680;5.134;2023-07-13T14:17:23;5.93;;;2.45;;
70545;SDS011;58098;51.680;5.134;2023-07-13T14:19:51;8.07;;;2.60;;
70545;SDS011;58098;51.680;5.134;2023-07-13T14:22:22;4.60;;;2.70;;
70545;SDS011;58098;51.680;5.134;2023-07-13T14:24:54;4.45;;;2.30;;
70545;SDS011;58098;51.680;5.134;2023-07-13T14:27:20;6.88;;;2.88;;
70545;SDS011;58098;51.680;5.134;2023-07-13T14:29:46;4.72;;;2.67;;
70545;SDS011;58098;51.680;5.134;2023-07-13T14:32:11;5.77;;;2.53;;
70545;SDS011;58098;51.680;5.134;2023-07-13T14:34:38;5.35;;;2.33;;
70545;SDS011;58098;51.680;5.134;2023-07-13T14:37:04;4.28;;;2.40;;
70545;SDS011;58098;51.680;5.134;2023-07-13T14:39:30;7.20;;;2.27;;
70545;SDS011;58098;51.680;5.134;2023-07-13T14:41:56;5.15;;;2.58;;
70545;SDS011;58098;51.680;5.134;2023-07-13T14:44:26;5.40;;;2.03;;
70545;SDS011;58098;51.680;5.134;2023-07-13T14:46:54;5.70;;;2.40;;
70545;SDS011;58098;51.680;5.134;2023-07-13T14:49:40;6.00;;;2.20;;
70545;SDS011;58098;51.680;5.134;2023-07-13T14:52:26;5.30;;;1.92;;
70545;SDS011;58098;51.680;5.134;2023-07-13T14:54:52;5.63;;;2.60;;
70545;SDS011;58098;51.680;5.134;2023-07-13T14:57:18;8.17;;;2.50;;
70545;SDS011;58098;51.680;5.134;2023-07-13T14:59:45;5.57;;;2.20;;
70545;SDS011;58098;51.680;5.134;2023-07-13T15:02:15;6.07;;;2.47;;
70545;SDS011;58098;51.680;5.134;2023-07-13T15:05:18;4.68;;;2.45;;
70545;SDS011;58098;51.680;5.134;2023-07-13T15:07:52;5.10;;;2.00;;
70545;SDS011;58098;51.680;5.134;2023-07-13T15:10:25;4.50;;;2.08;;
70545;SDS011;58098;51.680;5.134;2023-07-13T15:12:56;3.40;;;1.92;;
70545;SDS011;58098;51.680;5.134;2023-07-13T15:15:23;3.15;;;1.83;;
70545;SDS011;58098;51.680;5.134;2023-07-13T15:17:49;3.40;;;2.23;;
70545;SDS011;58098;51.680;5.134;2023-07-13T15:22:57;3.80;;;1.92;;
70545;SDS011;58098;51.680;5.134;2023-07-13T15:25:24;4.13;;;1.83;;